Time;durP1;ratioP1;P1;durP2;ratioP2;P2;SDS_P1;SDS_P2;PMS_P1;PMS_P2;Temp;Humidity;BMP_temperature;BMP_pressure;BME280_temperature;BME280_humidity;BME280_pressure;Samples;Min_cycle;Max_cycle;Signal;HPM_P1;HPM_P2
2023/12/20 00:00:14;;;;;;;14.97;3.00;;;5.40;99.90;;;;;;5111749;28;20209;-53
2023/12/20 00:02:39;;;;;;;19.87;3.30;;;5.40;99.90;;;;;;5111371;28;20179;-53
2023/12/20 00:05:05;;;;;;;14.27;2.53;;;5.40;99.90;;;;;;5111157;28;20426;-53
2023/12/20 00:07:31;;;;;;;12.83;3.00;;;5.30;99.90;;;;;;5110972;28;20272;-53
2023/12/20 00:09:56;;;;;;;24.63;3.60;;;5.40;99.90;;;;;;5111318;28;20419;-53
2023/12/20 00:12:22;;;;;;;24.67;3.33;;;5.30;99.90;;;;;;5111828;28;20221;-52
2023/12/20 00:14:48;;;;;;;22.47;3.00;;;5.30;99.90;;;;;;5111401;28;20618;-53
2023/12/20 00:17:13;;;;;;;18.93;2.40;;;5.30;99.90;;;;;;5111755;28;20468;-53
2023/12/20 00:19:39;;;;;;;16.27;2.33;;;5.30;99.90;;;;;;5111645;28;20297;-53
2023/12/20 00:22:05;;;;;;;21.07;2.97;;;5.30;99.90;;;;;;5111343;28;20180;-53
2023/12/20 00:24:30;;;;;;;18.27;2.90;;;5.30;99.90;;;;;;5111106;28;20545;-52
2023/12/20 00:26:56;;;;;;;18.50;2.90;;;5.30;99.90;;;;;;5111652;28;20181;-52
2023/12/20 00:29:21;;;;;;;15.80;2.90;;;5.40;99.90;;;;;;5111007;28;20173;-52
2023/12/20 00:31:47;;;;;;;15.80;2.93;;;5.40;99.90;;;;;;5111734;28;20548;-53
2023/12/20 00:34:12;;;;;;;22.43;3.00;;;5.40;99.90;;;;;;5111298;28;20691;-53
2023/12/20 00:36:38;;;;;;;13.93;3.20;;;5.50;99.90;;;;;;5110796;28;20204;-53
2023/12/20 00:39:04;;;;;;;21.37;3.23;;;5.40;99.90;;;;;;5112334;28;20184;-53
2023/12/20 00:41:29;;;;;;;18.93;2.87;;;5.50;99.90;;;;;;5110721;28;20177;-53
2023/12/20 00:43:55;;;;;;;16.23;2.60;;;5.50;99.90;;;;;;5111373;28;20421;-53
2023/12/20 00:46:20;;;;;;;18.73;3.97;;;5.40;99.90;;;;;;5110994;28;20189;-53
2023/12/20 00:48:46;;;;;;;17.47;3.10;;;5.40;99.90;;;;;;5110752;28;20270;-53
2023/12/20 00:51:12;;;;;;;10.47;2.50;;;5.40;99.90;;;;;;5111219;28;20175;-53
2023/12/20 00:53:37;;;;;;;16.63;3.33;;;5.40;99.90;;;;;;5110744;28;20180;-53
2023/12/20 00:56:03;;;;;;;21.70;3.53;;;5.40;99.90;;;;;;5111369;28;20672;-53
2023/12/20 00:58:28;;;;;;;13.57;2.60;;;5.40;99.90;;;;;;5111079;28;20646;-53
2023/12/20 01:00:54;;;;;;;18.53;3.30;;;5.40;99.90;;;;;;5110893;28;20174;-53
2023/12/20 01:03:20;;;;;;;13.83;2.83;;;5.50;99.90;;;;;;5111338;28;20176;-53
2023/12/20 01:05:45;;;;;;;18.63;2.83;;;5.50;99.90;;;;;;5110716;28;20187;-53
2023/12/20 01:08:11;;;;;;;17.27;2.97;;;5.40;95.60;;;;;;5112513;28;20597;-53
2023/12/20 01:10:36;;;;;;;23.30;3.10;;;5.40;91.90;;;;;;5114885;28;20521;-53
2023/12/20 01:13:02;;;;;;;26.20;2.93;;;5.40;76.60;;;;;;5114151;28;20270;-53
2023/12/20 01:15:28;;;;;;;13.47;2.93;;;5.30;61.50;;;;;;5114182;28;20216;-53
2023/12/20 01:17:53;;;;;;;9.53;2.17;;;5.40;61.40;;;;;;5114738;28;20223;-53
2023/12/20 01:20:20;;;;;;;39.70;3.03;;;5.30;25.10;;;;;;5114677;28;20265;-53
2023/12/20 01:22:45;;;;;;;11.60;2.73;;;5.30;25.30;;;;;;5114400;28;20267;-53
2023/12/20 01:25:12;;;;;;;19.33;2.80;;;5.30;43.20;;;;;;5114177;28;20488;-52
2023/12/20 01:27:37;;;;;;;14.53;3.20;;;5.30;40.00;;;;;;5113932;28;20188;-52
2023/12/20 01:30:04;;;;;;;15.00;2.83;;;5.30;26.10;;;;;;5113968;28;20416;-53
2023/12/20 01:32:30;;;;;;;14.67;2.67;;;5.30;24.90;;;;;;5114325;28;20243;-52
2023/12/20 01:34:55;;;;;;;13.83;2.73;;;5.30;24.20;;;;;;5114325;28;20416;-52
2023/12/20 01:37:23;;;;;;;16.20;2.80;;;5.30;25.20;;;;;;5114192;28;20265;-53
2023/12/20 01:39:49;;;;;;;11.83;2.50;;;5.30;17.40;;;;;;5114343;28;20204;-52
2023/12/20 01:42:14;;;;;;;18.83;2.73;;;5.20;1.00;;;;;;5114035;28;20920;-52
2023/12/20 01:44:40;;;;;;;32.40;3.93;;;5.30;8.10;;;;;;5114729;28;20264;-52
2023/12/20 01:47:06;;;;;;;15.43;2.53;;;5.20;4.00;;;;;;5113893;28;20549;-52
2023/12/20 01:49:31;;;;;;;21.47;3.30;;;5.20;18.30;;;;;;5113772;28;20587;-52
2023/12/20 01:51:57;;;;;;;19.83;2.97;;;5.20;19.90;;;;;;5113056;28;20583;-53
2023/12/20 01:54:22;;;;;;;19.33;3.43;;;5.20;17.80;;;;;;5113807;28;20224;-52
2023/12/20 01:56:50;;;;;;;18.00;2.50;;;5.20;24.70;;;;;;5114091;28;20211;-53
2023/12/20 01:59:16;;;;;;;10.43;2.50;;;5.20;21.00;;;;;;5113923;28;20179;-53
2023/12/20 02:01:42;;;;;;;23.17;3.40;;;5.30;46.30;;;;;;5113211;28;20939;-53
2023/12/20 02:04:07;;;;;;;10.60;2.63;;;5.30;37.40;;;;;;5113446;28;20461;-52
2023/12/20 02:06:34;;;;;;;16.63;2.70;;;5.30;37.70;;;;;;5113305;28;20589;-53
2023/12/20 02:09:00;;;;;;;21.63;2.53;;;5.30;25.00;;;;;;5113146;28;20231;-52
2023/12/20 02:11:26;;;;;;;29.43;3.20;;;5.30;13.30;;;;;;5113021;28;20424;-52
2023/12/20 02:13:52;;;;;;;13.57;3.20;;;5.30;1.00;;;;;;5114437;28;20933;-52
2023/12/20 02:16:17;;;;;;;13.47;2.60;;;5.20;1.00;;;;;;5113520;28;20492;-53
2023/12/20 02:18:44;;;;;;;14.23;2.53;;;5.20;11.50;;;;;;5113208;28;20189;-53
2023/12/20 02:21:10;;;;;;;12.30;2.33;;;5.20;10.00;;;;;;5112659;28;20647;-53
2023/12/20 02:23:35;;;;;;;18.57;2.50;;;5.20;22.80;;;;;;5113338;28;20448;-53
2023/12/20 02:26:02;;;;;;;30.20;3.27;;;5.20;28.60;;;;;;5113911;28;20180;-53
2023/12/20 02:28:28;;;;;;;21.60;2.73;;;5.10;23.10;;;;;;5113370;28;20255;-53
2023/12/20 02:30:53;;;;;;;13.53;2.57;;;5.20;41.30;;;;;;5112214;28;20471;-53
2023/12/20 02:33:19;;;;;;;19.50;2.30;;;5.20;53.80;;;;;;5113391;28;20439;-54
2023/12/20 02:35:44;;;;;;;18.77;3.67;;;5.20;68.30;;;;;;5113088;28;20219;-53
2023/12/20 02:38:10;;;;;;;29.30;2.97;;;5.20;62.80;;;;;;5112555;28;20185;-53
2023/12/20 02:40:36;;;;;;;25.03;3.73;;;5.20;68.30;;;;;;5112970;28;20179;-53
2023/12/20 02:43:01;;;;;;;18.27;3.07;;;5.30;65.40;;;;;;5113254;28;20525;-53
2023/12/20 02:45:27;;;;;;;14.20;2.93;;;5.20;65.90;;;;;;5112648;28;20187;-53
2023/12/20 02:47:53;;;;;;;13.03;2.80;;;5.30;68.90;;;;;;5112033;28;20175;-53
2023/12/20 02:50:18;;;;;;;17.33;2.57;;;5.30;56.70;;;;;;5113129;28;20748;-53
2023/12/20 02:52:45;;;;;;;22.03;2.67;;;5.30;33.20;;;;;;5113087;28;20174;-53
2023/12/20 02:55:11;;;;;;;15.50;3.63;;;5.30;39.30;;;;;;5111650;28;20194;-53
2023/12/20 02:57:41;;;;;;;16.37;2.67;;;5.40;30.00;;;;;;5113679;28;20775;-53
2023/12/20 03:00:10;;;;;;;11.17;2.20;;;5.40;19.80;;;;;;5112844;28;20181;-53
2023/12/20 03:02:36;;;;;;;12.33;2.67;;;5.30;16.20;;;;;;5111798;28;20422;-53
2023/12/20 03:05:02;;;;;;;19.80;2.50;;;5.30;17.90;;;;;;5110986;28;20742;-53
2023/12/20 03:07:28;;;;;;;11.13;2.57;;;5.30;20.00;;;;;;5111065;28;20696;-53
2023/12/20 03:09:53;;;;;;;15.53;3.10;;;5.40;20.30;;;;;;5111230;28;20526;-53
2023/12/20 03:12:19;;;;;;;17.47;2.83;;;5.40;3.40;;;;;;5112123;28;20180;-53
2023/12/20 03:14:44;;;;;;;9.50;2.40;;;5.40;1.00;;;;;;5110475;28;20545;-53
2023/12/20 03:17:10;;;;;;;15.43;3.27;;;5.40;1.00;;;;;;5111691;28;20671;-54
2023/12/20 03:19:36;;;;;;;16.07;3.20;;;5.40;1.00;;;;;;5110660;28;20515;-53
2023/12/20 03:22:01;;;;;;;23.80;3.30;;;5.40;1.00;;;;;;5110195;28;20445;-53
2023/12/20 03:24:27;;;;;;;16.40;3.10;;;5.40;1.00;;;;;;5111045;28;20340;-54
2023/12/20 03:26:53;;;;;;;15.13;3.33;;;5.30;1.00;;;;;;5111145;28;20650;-58
2023/12/20 03:29:19;;;;;;;14.47;2.90;;;5.40;1.00;;;;;;5111081;28;20183;-54
2023/12/20 03:31:45;;;;;;;14.27;2.63;;;5.40;1.00;;;;;;5110607;28;20182;-53
2023/12/20 03:34:11;;;;;;;19.53;3.00;;;5.40;1.00;;;;;;5110720;28;20231;-53
2023/12/20 03:36:36;;;;;;;17.60;3.20;;;5.50;1.00;;;;;;5110995;28;20969;-53
2023/12/20 03:39:02;;;;;;;17.60;3.20;;;5.40;1.00;;;;;;5110590;28;20191;-54
2023/12/20 03:41:28;;;;;;;10.27;2.77;;;5.40;1.00;;;;;;5110563;28;20313;-54
2023/12/20 03:43:54;;;;;;;14.20;2.30;;;5.40;1.00;;;;;;5111005;28;20924;-53
2023/12/20 03:46:19;;;;;;;17.00;2.40;;;5.40;1.00;;;;;;5110353;28;20664;-54
2023/12/20 03:48:45;;;;;;;13.90;2.60;;;5.40;1.00;;;;;;5110160;28;20188;-53
2023/12/20 03:51:10;;;;;;;17.27;2.70;;;5.40;1.00;;;;;;5111713;28;20198;-53
2023/12/20 03:53:36;;;;;;;11.07;2.53;;;5.40;1.00;;;;;;5110432;28;20541;-53
2023/12/20 03:56:01;;;;;;;10.40;2.60;;;5.40;1.00;;;;;;5110742;28;20214;-53
2023/12/20 03:58:27;;;;;;;9.73;2.60;;;5.40;1.00;;;;;;5111136;28;20211;-53
2023/12/20 04:00:52;;;;;;;17.77;2.57;;;5.40;1.00;;;;;;5110564;28;20265;-53
2023/12/20 04:03:18;;;;;;;15.50;3.00;;;5.50;1.00;;;;;;5111134;28;20235;-54
2023/12/20 04:05:43;;;;;;;20.30;2.97;;;5.50;1.00;;;;;;5110881;28;20199;-54
2023/12/20 04:08:09;;;;;;;12.97;2.57;;;5.50;1.00;;;;;;5109690;28;20322;-54
2023/12/20 04:10:35;;;;;;;10.70;2.50;;;5.40;1.00;;;;;;5110967;28;20224;-54
2023/12/20 04:13:01;;;;;;;12.50;2.63;;;5.40;1.00;;;;;;5110322;28;20271;-54
2023/12/20 04:15:26;;;;;;;11.57;2.20;;;5.50;1.00;;;;;;5110725;28;20277;-54
2023/12/20 04:17:52;;;;;;;11.43;2.60;;;5.50;1.00;;;;;;5109775;28;20187;-54
2023/12/20 04:20:18;;;;;;;21.63;3.00;;;5.60;1.00;;;;;;5111236;28;20190;-54
2023/12/20 04:22:43;;;;;;;15.23;2.43;;;5.50;1.00;;;;;;5110986;28;20233;-54
2023/12/20 04:25:09;;;;;;;13.10;1.97;;;5.60;1.00;;;;;;5109629;28;20191;-54
2023/12/20 04:27:35;;;;;;;25.20;2.37;;;5.60;1.00;;;;;;5109845;28;20181;-54
2023/12/20 04:30:00;;;;;;;17.87;2.77;;;5.60;1.00;;;;;;5110932;28;20507;-54
2023/12/20 04:32:26;;;;;;;13.23;2.47;;;5.60;99.90;;;;;;5110929;28;20205;-54
2023/12/20 04:34:51;;;;;;;13.40;2.80;;;5.60;99.90;;;;;;5110368;28;20181;-53
2023/12/20 04:37:17;;;;;;;17.37;2.70;;;5.60;99.90;;;;;;5109794;28;20201;-54
2023/12/20 04:39:42;;;;;;;10.70;2.53;;;5.60;1.00;;;;;;5110614;28;20238;-54
2023/12/20 04:42:08;;;;;;;23.23;3.23;;;5.60;99.90;;;;;;5109967;28;20260;-54
2023/12/20 04:44:33;;;;;;;11.57;2.10;;;5.60;99.90;;;;;;5113700;28;20190;-54
2023/12/20 04:46:59;;;;;;;14.73;2.60;;;5.70;99.90;;;;;;5115165;28;20187;-54
2023/12/20 04:49:25;;;;;;;15.30;3.10;;;5.70;99.90;;;;;;5113341;28;20190;-54
2023/12/20 04:51:51;;;;;;;14.10;2.67;;;5.70;99.90;;;;;;5114903;28;20420;-54
2023/12/20 04:54:16;;;;;;;14.47;3.80;;;5.70;99.90;;;;;;5113977;28;20281;-54
2023/12/20 04:56:42;;;;;;;8.10;2.47;;;5.70;99.90;;;;;;5114388;28;20208;-54
2023/12/20 04:59:07;;;;;;;17.03;3.07;;;5.60;99.90;;;;;;5112739;28;20533;-54
2023/12/20 05:01:33;;;;;;;17.03;3.23;;;5.70;99.90;;;;;;5114675;28;20190;-54
2023/12/20 05:03:59;;;;;;;11.37;2.53;;;5.70;99.90;;;;;;5114136;28;20688;-54
2023/12/20 05:06:24;;;;;;;8.87;2.40;;;5.70;99.90;;;;;;5113549;28;20275;-54
2023/12/20 05:08:50;;;;;;;19.47;3.50;;;5.80;99.90;;;;;;5113232;28;20224;-54
2023/12/20 05:11:15;;;;;;;13.37;3.20;;;5.80;99.90;;;;;;5113260;28;20208;-54
2023/12/20 05:13:42;;;;;;;12.20;2.83;;;5.80;99.90;;;;;;5114341;28;20194;-54
2023/12/20 05:16:08;;;;;;;20.23;3.20;;;5.80;99.90;;;;;;5113075;28;20206;-54
2023/12/20 05:18:34;;;;;;;18.03;2.87;;;5.90;99.90;;;;;;5114101;28;20441;-54
2023/12/20 05:21:00;;;;;;;16.73;3.20;;;5.90;99.90;;;;;;5113829;28;20414;-54
2023/12/20 05:23:25;;;;;;;12.93;2.93;;;5.90;92.80;;;;;;5113058;28;20184;-54
2023/12/20 05:25:51;;;;;;;19.33;2.83;;;5.90;99.90;;;;;;5114216;28;20224;-54
2023/12/20 05:28:17;;;;;;;12.50;2.93;;;5.90;94.00;;;;;;5113767;28;20538;-54
2023/12/20 05:30:43;;;;;;;14.80;3.57;;;5.90;1.00;;;;;;5113480;28;20185;-54
2023/12/20 05:33:09;;;;;;;14.10;3.17;;;5.90;1.00;;;;;;5112947;28;20512;-54
2023/12/20 05:35:34;;;;;;;16.57;3.00;;;5.90;1.00;;;;;;5112479;28;20547;-54
2023/12/20 05:38:00;;;;;;;13.90;3.00;;;5.90;26.10;;;;;;5112938;28;20413;-53
2023/12/20 05:40:26;;;;;;;14.80;3.60;;;5.90;16.00;;;;;;5113026;28;20214;-54
2023/12/20 05:42:51;;;;;;;18.17;2.97;;;5.90;99.90;;;;;;5113420;28;20172;-54
2023/12/20 05:45:17;;;;;;;17.90;3.70;;;6.00;99.90;;;;;;5113280;28;20184;-54
2023/12/20 05:47:42;;;;;;;23.97;4.13;;;5.90;99.90;;;;;;5111635;28;20712;-54
2023/12/20 05:50:09;;;;;;;17.07;3.90;;;5.80;99.90;;;;;;5113034;28;20178;-54
2023/12/20 05:52:34;;;;;;;22.87;3.77;;;5.90;1.00;;;;;;5113038;28;20208;-54
2023/12/20 05:55:01;;;;;;;15.47;3.43;;;5.90;1.00;;;;;;5113378;28;20501;-54
2023/12/20 05:57:27;;;;;;;16.63;4.47;;;5.90;1.00;;;;;;5112722;28;20562;-53
2023/12/20 05:59:53;;;;;;;22.57;4.10;;;5.80;1.00;;;;;;5112304;28;20414;-53
2023/12/20 06:02:18;;;;;;;21.20;3.33;;;5.90;1.00;;;;;;5112263;28;20945;-54
2023/12/20 06:04:44;;;;;;;14.53;3.50;;;5.80;1.00;;;;;;5113009;28;20244;-54
2023/12/20 06:07:13;;;;;;;8.17;2.83;;;5.90;1.00;;;;;;5113035;28;20276;-54
2023/12/20 06:09:39;;;;;;;19.80;4.10;;;5.90;1.00;;;;;;5111493;28;20672;-54
2023/12/20 06:12:05;;;;;;;22.37;4.00;;;5.90;1.00;;;;;;5111590;28;20440;-54
2023/12/20 06:14:31;;;;;;;19.50;3.40;;;5.90;1.00;;;;;;5111849;28;20179;-54
2023/12/20 06:16:57;;;;;;;13.80;3.60;;;5.90;1.00;;;;;;5112794;28;20261;-53
2023/12/20 06:19:22;;;;;;;14.23;3.20;;;5.90;1.00;;;;;;5110630;28;20195;-53
2023/12/20 06:21:48;;;;;;;18.20;3.93;;;5.90;99.90;;;;;;5112555;28;20422;-53
2023/12/20 06:24:14;;;;;;;14.00;2.87;;;5.90;99.90;;;;;;5112511;28;20207;-54
2023/12/20 06:26:39;;;;;;;19.57;4.03;;;5.90;99.90;;;;;;5111968;28;20222;-54
2023/12/20 06:29:05;;;;;;;15.50;3.77;;;5.90;99.90;;;;;;5112074;28;20187;-53
2023/12/20 06:31:32;;;;;;;21.93;3.30;;;5.90;99.90;;;;;;5111774;28;20211;-54
2023/12/20 06:33:59;;;;;;;19.63;3.70;;;5.90;99.90;;;;;;5112652;28;20645;-54
2023/12/20 06:36:25;;;;;;;10.00;2.90;;;5.90;99.90;;;;;;5112039;28;20829;-54
2023/12/20 06:38:51;;;;;;;22.03;3.87;;;6.00;99.90;;;;;;5111948;28;20422;-54
2023/12/20 06:41:17;;;;;;;21.53;4.67;;;6.00;52.20;;;;;;5111670;28;20417;-55
2023/12/20 06:43:43;;;;;;;20.17;3.97;;;6.10;1.00;;;;;;5112036;28;20458;-55
2023/12/20 06:46:08;;;;;;;21.57;3.73;;;6.10;1.00;;;;;;5110930;28;20769;-54
2023/12/20 06:48:34;;;;;;;20.43;3.50;;;6.00;1.00;;;;;;5112548;28;20183;-54
2023/12/20 06:51:04;;;;;;;12.07;3.50;;;6.00;1.00;;;;;;5111895;28;20275;-54
2023/12/20 06:53:29;;;;;;;24.53;4.20;;;6.00;66.00;;;;;;5110722;28;20713;-56
2023/12/20 06:55:56;;;;;;;17.23;3.23;;;6.00;99.90;;;;;;5112424;28;20456;-54
2023/12/20 06:58:22;;;;;;;10.93;3.27;;;6.00;15.60;;;;;;5113074;28;20542;-54
2023/12/20 07:00:47;;;;;;;14.00;2.87;;;6.00;1.00;;;;;;5112920;28;20903;-54
2023/12/20 07:03:13;;;;;;;27.00;3.70;;;6.10;1.00;;;;;;5112418;28;20410;-55
2023/12/20 07:05:39;;;;;;;22.00;3.30;;;6.00;1.00;;;;;;5111251;28;20184;-54
2023/12/20 07:08:05;;;;;;;15.80;2.73;;;6.00;1.00;;;;;;5112257;28;20231;-54
2023/12/20 07:10:30;;;;;;;14.90;3.00;;;6.00;1.00;;;;;;5112774;28;20183;-54
2023/12/20 07:12:56;;;;;;;24.13;3.33;;;6.00;1.00;;;;;;5112087;28;20903;-54
2023/12/20 07:15:22;;;;;;;20.70;4.43;;;6.00;1.00;;;;;;5112101;28;20174;-55
2023/12/20 07:17:48;;;;;;;16.30;3.27;;;6.00;1.00;;;;;;5112981;28;20186;-54
2023/12/20 07:20:14;;;;;;;17.80;3.37;;;6.00;1.00;;;;;;5111831;28;20804;-55
2023/12/20 07:22:39;;;;;;;19.97;3.70;;;6.10;1.00;;;;;;5111731;28;20640;-55
2023/12/20 07:25:05;;;;;;;14.43;3.10;;;6.10;1.00;;;;;;5112172;28;20183;-55
2023/12/20 07:27:31;;;;;;;24.10;3.83;;;6.10;1.00;;;;;;5112574;28;20183;-55
2023/12/20 07:29:56;;;;;;;12.40;3.10;;;6.10;1.00;;;;;;5110530;28;20898;-55
2023/12/20 07:32:22;;;;;;;26.63;3.40;;;6.20;99.90;;;;;;5112604;28;20187;-55
2023/12/20 07:34:47;;;;;;;18.43;3.67;;;6.20;7.40;;;;;;5112698;28;20236;-55
2023/12/20 07:37:13;;;;;;;13.20;3.13;;;6.20;1.00;;;;;;5111547;28;20270;-55
2023/12/20 07:39:42;;;;;;;16.53;3.47;;;6.30;1.00;;;;;;5111038;28;20190;-53
2023/12/20 07:42:08;;;;;;;21.80;3.77;;;6.20;1.00;;;;;;5111946;28;20179;-54
2023/12/20 07:44:35;;;;;;;17.30;4.57;;;6.20;39.30;;;;;;5112677;28;20416;-54
2023/12/20 07:47:01;;;;;;;18.40;3.10;;;6.20;12.00;;;;;;5111300;28;20917;-55
2023/12/20 07:49:27;;;;;;;22.40;4.10;;;6.30;27.50;;;;;;5111184;28;20427;-55
2023/12/20 07:51:53;;;;;;;19.37;3.93;;;6.30;1.00;;;;;;5111485;28;20413;-54
2023/12/20 07:54:18;;;;;;;24.30;4.03;;;6.30;1.00;;;;;;5112606;28;20182;-54
2023/12/20 07:56:44;;;;;;;23.67;3.97;;;6.40;1.00;;;;;;5111918;28;20211;-54
2023/12/20 07:59:10;;;;;;;20.63;3.73;;;6.40;99.90;;;;;;5111114;28;20651;-54
2023/12/20 08:01:35;;;;;;;19.87;3.63;;;6.30;1.00;;;;;;5111687;28;20569;-54
2023/12/20 08:04:01;;;;;;;16.30;3.80;;;6.40;99.90;;;;;;5111316;28;20183;-54
2023/12/20 08:06:27;;;;;;;16.50;3.80;;;6.40;99.90;;;;;;5110942;28;20491;-54
2023/12/20 08:08:52;;;;;;;20.17;3.80;;;6.50;99.90;;;;;;5111219;28;20224;-54
2023/12/20 08:11:18;;;;;;;19.23;4.37;;;6.50;99.90;;;;;;5111796;28;20182;-54
2023/12/20 08:13:43;;;;;;;18.63;4.20;;;6.50;99.90;;;;;;5110844;28;20183;-54
2023/12/20 08:16:09;;;;;;;15.93;3.83;;;6.50;99.90;;;;;;5111562;28;20202;-54
2023/12/20 08:18:34;;;;;;;14.80;3.80;;;6.50;99.90;;;;;;5115033;28;20573;-54
2023/12/20 08:21:01;;;;;;;19.50;4.37;;;6.50;1.00;;;;;;5116066;28;20171;-54
2023/12/20 08:23:27;;;;;;;15.83;3.10;;;6.60;1.00;;;;;;5114633;28;20555;-54
2023/12/20 08:25:52;;;;;;;14.93;3.10;;;6.60;1.00;;;;;;5115022;28;20429;-54
2023/12/20 08:28:18;;;;;;;14.70;3.63;;;6.60;1.00;;;;;;5116002;28;20187;-55
2023/12/20 08:30:43;;;;;;;13.07;3.43;;;6.60;1.00;;;;;;5116174;28;20502;-54
2023/12/20 08:33:12;;;;;;;21.10;3.53;;;6.70;99.90;;;;;;5114615;28;20194;-54
2023/12/20 08:35:40;;;;;;;20.27;3.67;;;6.70;99.90;;;;;;5115645;28;20545;-54
2023/12/20 08:38:07;;;;;;;22.80;3.80;;;6.70;99.90;;;;;;5114874;28;20412;-54
2023/12/20 08:40:32;;;;;;;16.03;3.50;;;6.70;99.90;;;;;;5115634;28;20508;-54
2023/12/20 08:42:58;;;;;;;19.23;3.73;;;6.80;99.90;;;;;;5115203;28;20506;-54
2023/12/20 08:45:24;;;;;;;18.23;3.77;;;6.80;1.00;;;;;;5114766;28;20173;-54
2023/12/20 08:47:50;;;;;;;25.60;4.17;;;6.90;1.00;;;;;;5115639;28;20639;-54
2023/12/20 08:50:15;;;;;;;19.43;4.00;;;6.90;1.00;;;;;;5114237;28;20437;-54
2023/12/20 08:52:42;;;;;;;16.80;4.50;;;6.90;1.00;;;;;;5114865;28;20629;-54
2023/12/20 08:55:08;;;;;;;11.17;3.30;;;6.90;99.90;;;;;;5114885;28;20214;-54
2023/12/20 08:57:33;;;;;;;24.83;3.40;;;6.80;1.00;;;;;;5114978;28;20466;-54
2023/12/20 08:59:59;;;;;;;21.40;4.17;;;6.70;99.90;;;;;;5114640;28;20806;-54
2023/12/20 09:02:24;;;;;;;26.37;3.57;;;6.70;99.90;;;;;;5114414;28;20194;-54
2023/12/20 09:04:50;;;;;;;14.63;3.37;;;6.70;1.00;;;;;;5114242;28;20183;-54
2023/12/20 09:07:26;;;;;;;16.50;3.47;;;6.70;1.00;;;;;;5114508;28;20245;-54
2023/12/20 09:09:52;;;;;;;12.27;2.90;;;6.60;99.90;;;;;;5113692;28;20172;-54
2023/12/20 09:12:19;;;;;;;12.80;3.27;;;6.50;99.90;;;;;;5114933;28;20457;-54
2023/12/20 09:14:45;;;;;;;15.10;3.13;;;6.60;99.90;;;;;;5115155;28;20557;-54
2023/12/20 09:17:12;;;;;;;12.03;3.00;;;6.50;1.00;;;;;;5114841;28;20471;-54
2023/12/20 09:19:38;;;;;;;14.37;3.20;;;6.40;94.10;;;;;;5113196;28;20762;-54
2023/12/20 09:22:04;;;;;;;9.53;3.00;;;6.40;99.90;;;;;;5114591;28;20467;-54
2023/12/20 09:24:30;;;;;;;13.40;2.43;;;6.40;99.90;;;;;;5115283;28;20802;-54
2023/12/20 09:26:56;;;;;;;15.70;2.40;;;6.40;1.00;;;;;;5113745;28;20239;-54
2023/12/20 09:29:22;;;;;;;10.90;2.83;;;6.30;14.60;;;;;;5113712;28;20412;-54
2023/12/20 09:31:48;;;;;;;5.97;1.40;;;6.20;1.00;;;;;;5114660;28;20184;-54
2023/12/20 09:34:16;;;;;;;2.63;1.00;;;6.20;1.00;;;;;;5113825;28;20404;-54
2023/12/20 09:36:46;;;;;;;4.47;2.10;;;6.10;1.00;;;;;;5114316;28;20638;-54
2023/12/20 09:39:19;;;;;;;3.33;1.43;;;6.10;1.00;;;;;;5114479;28;20491;-54
2023/12/20 09:41:46;;;;;;;3.57;0.90;;;6.10;1.00;;;;;;5114207;28;20457;-54
2023/12/20 09:44:17;;;;;;;4.10;1.33;;;6.10;1.00;;;;;;5114056;28;20503;-54
2023/12/20 09:46:45;;;;;;;6.23;1.60;;;6.10;99.90;;;;;;5113581;28;20443;-54
2023/12/20 09:49:12;;;;;;;5.10;1.03;;;6.20;71.30;;;;;;5113737;28;20452;-54
2023/12/20 09:51:39;;;;;;;1.37;0.80;;;6.30;1.00;;;;;;5113820;28;20413;-54
2023/12/20 09:54:05;;;;;;;6.80;1.27;;;6.20;99.90;;;;;;5112878;28;20497;-54
2023/12/20 09:56:31;;;;;;;3.57;1.30;;;6.00;99.90;;;;;;5114194;28;20927;-54
2023/12/20 09:58:57;;;;;;;2.63;0.87;;;5.90;17.00;;;;;;5114072;28;20187;-54
2023/12/20 10:01:23;;;;;;;1.63;0.70;;;5.80;1.00;;;;;;5113260;28;20211;-54
2023/12/20 10:03:54;;;;;;;1.60;0.87;;;5.70;99.90;;;;;;5113079;28;20182;-54
2023/12/20 10:06:19;;;;;;;4.90;0.90;;;5.60;1.00;;;;;;5113941;28;20552;-54
2023/12/20 10:08:45;;;;;;;5.67;0.90;;;5.60;1.00;;;;;;5114040;28;21193;-54
2023/12/20 10:11:10;;;;;;;4.73;1.00;;;5.60;1.00;;;;;;5114151;28;20201;-54
2023/12/20 10:13:42;;;;;;;1.70;0.90;;;5.60;99.90;;;;;;5113176;28;20191;-54
2023/12/20 10:16:08;;;;;;;4.83;0.90;;;5.60;99.90;;;;;;5112913;28;20205;-54
2023/12/20 10:18:34;;;;;;;3.43;1.10;;;5.70;10.30;;;;;;5113396;28;20461;-54
2023/12/20 10:21:00;;;;;;;3.00;1.10;;;5.60;99.90;;;;;;5113811;28;20209;-54
2023/12/20 10:23:26;;;;;;;2.60;0.97;;;5.60;99.90;;;;;;5113823;28;20192;-54
2023/12/20 10:26:01;;;;;;;2.70;0.97;;;5.60;99.90;;;;;;5112608;28;20412;-54
2023/12/20 10:28:29;;;;;;;3.60;1.10;;;5.60;1.00;;;;;;5113118;28;20180;-54
2023/12/20 10:30:58;;;;;;;3.80;0.93;;;5.60;1.00;;;;;;5113539;28;20411;-54
2023/12/20 10:33:28;;;;;;;2.23;0.90;;;5.70;1.00;;;;;;5112825;28;21388;-54
2023/12/20 10:35:55;;;;;;;5.70;1.00;;;5.80;1.00;;;;;;5112908;28;20463;-54
2023/12/20 10:38:20;;;;;;;5.50;1.47;;;5.80;99.90;;;;;;5112809;28;20430;-54
2023/12/20 10:40:46;;;;;;;8.00;1.83;;;5.80;44.30;;;;;;5112429;28;20417;-54
2023/12/20 10:43:13;;;;;;;6.00;1.00;;;5.90;99.90;;;;;;5113683;28;20186;-54
2023/12/20 10:45:38;;;;;;;5.37;1.30;;;5.90;1.00;;;;;;5112263;28;20182;-54
2023/12/20 10:48:05;;;;;;;5.13;1.20;;;5.80;1.00;;;;;;5113070;28;20408;-54
2023/12/20 10:50:31;;;;;;;6.60;1.83;;;5.80;1.00;;;;;;5112374;28;20279;-54
2023/12/20 10:52:58;;;;;;;6.73;1.40;;;5.80;99.90;;;;;;5113201;28;20418;-54
2023/12/20 10:55:25;;;;;;;8.00;1.73;;;5.90;4.10;;;;;;5113007;28;20414;-54
2023/12/20 10:58:07;;;;;;;6.63;1.57;;;5.90;99.90;;;;;;5111655;28;20430;-51
2023/12/20 11:00:43;;;;;;;5.33;2.10;;;5.90;1.00;;;;;;5112702;28;20879;-52
2023/12/20 11:03:11;;;;;;;6.23;1.60;;;5.90;1.00;;;;;;5112603;28;20775;-52
2023/12/20 11:05:36;;;;;;;5.60;1.50;;;5.90;1.00;;;;;;5111625;28;20411;-52
2023/12/20 11:08:32;;;;;;;10.27;1.60;;;5.80;1.00;;;;;;5112344;28;20994;-52
2023/12/20 11:11:12;;;;;;;11.57;1.30;;;5.80;99.90;;;;;;5111583;28;20297;-52
2023/12/20 11:13:53;;;;;;;13.47;1.50;;;5.90;1.00;;;;;;5111916;28;20399;-52
2023/12/20 11:16:19;;;;;;;10.47;2.13;;;6.00;1.00;;;;;;5112789;28;20457;-51
2023/12/20 11:18:45;;;;;;;14.50;1.97;;;6.00;99.90;;;;;;5112705;28;20775;-52
2023/12/20 11:21:11;;;;;;;10.30;2.07;;;6.00;99.90;;;;;;5111750;28;20177;-51
2023/12/20 11:23:36;;;;;;;7.40;1.50;;;5.90;29.90;;;;;;5111984;28;21186;-51
2023/12/20 11:26:03;;;;;;;9.47;1.83;;;6.00;99.90;;;;;;5112119;28;20193;-51
2023/12/20 11:28:32;;;;;;;10.27;1.90;;;6.20;99.90;;;;;;5093480;28;20174;-52
2023/12/20 11:31:00;;;;;;;7.13;1.63;;;6.10;1.00;;;;;;5111173;28;20410;-51
2023/12/20 11:33:29;;;;;;;12.20;2.17;;;6.00;1.00;;;;;;5111959;28;20432;-51
2023/12/20 11:35:56;;;;;;;11.53;2.60;;;5.80;99.90;;;;;;5111653;28;20473;-51
2023/12/20 11:38:23;;;;;;;13.80;1.70;;;5.70;1.00;;;;;;5112031;28;20903;-52
2023/12/20 11:40:50;;;;;;;8.83;1.60;;;5.60;99.90;;;;;;5112911;28;20417;-51
2023/12/20 11:43:35;;;;;;;9.00;2.30;;;5.50;99.90;;;;;;5110939;28;20415;-53
2023/12/20 11:46:09;;;;;;;18.83;2.43;;;5.50;99.90;;;;;;5112279;28;20424;-52
2023/12/20 11:48:39;;;;;;;11.27;1.93;;;5.50;99.90;;;;;;5112353;28;20404;-52
2023/12/20 11:51:12;;;;;;;11.80;2.07;;;5.50;99.90;;;;;;5111376;28;20414;-52
2023/12/20 11:53:38;;;;;;;9.23;2.03;;;5.50;1.00;;;;;;5111132;28;20406;-52
2023/12/20 11:56:06;;;;;;;11.13;2.33;;;5.70;1.00;;;;;;5111634;28;20463;-52
2023/12/20 11:58:33;;;;;;;12.47;2.13;;;5.60;1.00;;;;;;5111361;28;20510;-52
2023/12/20 12:00:58;;;;;;;14.50;2.53;;;5.60;1.00;;;;;;5111925;28;20456;-52
2023/12/20 12:03:24;;;;;;;9.20;2.20;;;5.60;1.00;;;;;;5112359;28;20461;-52
2023/12/20 12:05:50;;;;;;;10.43;1.70;;;5.60;1.00;;;;;;5111208;28;20182;-52
2023/12/20 12:08:17;;;;;;;9.10;1.80;;;5.70;1.00;;;;;;5111504;28;20299;-52
2023/12/20 12:10:43;;;;;;;11.30;2.00;;;5.60;1.00;;;;;;5111226;28;20181;-52
2023/12/20 12:13:09;;;;;;;22.07;2.93;;;5.70;1.00;;;;;;5110839;28;20990;-52
2023/12/20 12:15:36;;;;;;;13.20;2.07;;;5.90;1.00;;;;;;5111824;28;20555;-52
2023/12/20 12:18:02;;;;;;;23.17;3.40;;;6.30;1.00;;;;;;5110951;28;20201;-52
2023/12/20 12:20:27;;;;;;;14.43;2.90;;;6.90;1.00;;;;;;5111923;28;20747;-52
2023/12/20 12:22:59;;;;;;;12.27;2.70;;;7.60;1.00;;;;;;5111265;28;20526;-52
2023/12/20 12:25:27;;;;;;;11.77;2.63;;;8.80;1.00;;;;;;5110480;28;20187;-52
2023/12/20 12:27:52;;;;;;;13.40;2.47;;;10.20;1.00;;;;;;5111929;28;20451;-52
2023/12/20 12:30:21;;;;;;;10.20;2.00;;;11.20;52.20;;;;;;5111127;28;20963;-52
2023/12/20 12:32:46;;;;;;;9.97;2.20;;;11.90;1.00;;;;;;5110928;28;20196;-52
2023/12/20 12:35:12;;;;;;;13.63;3.13;;;12.00;1.00;;;;;;5110848;28;20434;-53
2023/12/20 12:37:41;;;;;;;15.90;2.77;;;12.20;1.00;;;;;;5111800;28;20213;-52
2023/12/20 12:40:13;;;;;;;12.63;2.47;;;12.60;1.00;;;;;;5112199;28;20195;-53
2023/12/20 12:42:40;;;;;;;13.43;2.80;;;12.80;1.00;;;;;;5110416;28;20398;-53
2023/12/20 12:45:07;;;;;;;12.17;2.77;;;12.80;1.00;;;;;;5110469;28;20411;-53
2023/12/20 12:47:33;;;;;;;9.93;2.10;;;13.20;1.00;;;;;;5110996;28;20494;-54